Kezdőlap
METAR-TAF:

METAR-TAF

Repülőterek :

Oral, Kazahsztán

földrajzi szélesség: 51-15N, földrajzi hosszúság: 051-17E, magasság: 36 m

Jelenlegi meteorológiai megfigyelések

A jelentés 45 perccel ezelõtt készült, 12:30 UTC
Északi szél 10 kt, észak-északnyugati és északkeleti között változik
Hőmérséklet 12°C
Páratartalom 12%
Légköri nyomás 1024 hPa
Látótávolság 10 km, vagy több
felhőtlen 1500 m magasságban, és nincs gomolyfelhõ

METAR: UARR 191230Z 36005MPS 330V040 CAVOK 12/M16 Q1024 R04/CLRD70 NOSIG RMK QFE764/1019

Idő: 18:15 (13:15 UTC)

Előrejelzés

A jelentés 2 órával és 14 perccel ezelõtt készült, 11:01 UTC
Az előrejelzés 19-én 12 óra UTC és 19-én 21 óra UTC között érvényes
Észak-északkeleti szél 12 kt
Látótávolság 10 km, vagy több
felhőtlen 1500 m magasságban, és nincs gomolyfelhõ

TAF: UARR 191101Z 1912/1921 02006MPS CAVOK

Meteorológiai megfigyelések és előrejelzések több, mint 4000 repülőtéren (METAR és TAF jelentéseket).

A térképen piros és sárga pontok jelzik az elérhető meteorológiai állomásokat.

Mozgassa az egeret a pont fölött, hogy megjelenjen az állomás neve.

Azután kattintson az időjárási megfigyelések és előrejelzések megtekintéséhez.

A térkép megváltoztatása: kattintson a fekete keresztel jelölt zöld gombra ráközelítéshez, a vonallal jelölt zöld gombra távolításhoz, vagy a zöld nyilakra a szomszédos térképek eléréséhez.


METAR-TAF: